sensor_id;sensor_type;location;lat;lon;timestamp;temperature;humidity
12957;DHT22;6543;48.836;10.092;2023-01-31T00:01:10;2.20;99.90
12957;DHT22;6543;48.836;10.092;2023-01-31T00:03:37;2.20;99.90
12957;DHT22;6543;48.836;10.092;2023-01-31T00:06:16;2.20;99.90
12957;DHT22;6543;48.836;10.092;2023-01-31T00:08:44;2.10;99.90
12957;DHT22;6543;48.836;10.092;2023-01-31T00:11:13;2.10;99.90
12957;DHT22;6543;48.836;10.092;2023-01-31T00:13:41;2.10;99.90
12957;DHT22;6543;48.836;10.092;2023-01-31T00:16:08;2.20;99.90
12957;DHT22;6543;48.836;10.092;2023-01-31T00:18:36;2.10;99.90
12957;DHT22;6543;48.836;10.092;2023-01-31T00:21:07;2.10;99.90
12957;DHT22;6543;48.836;10.092;2023-01-31T00:23:34;2.10;99.90
12957;DHT22;6543;48.836;10.092;2023-01-31T00:26:13;2.00;99.90
12957;DHT22;6543;48.836;10.092;2023-01-31T00:28:41;2.00;99.90
12957;DHT22;6543;48.836;10.092;2023-01-31T00:31:09;2.00;99.90
12957;DHT22;6543;48.836;10.092;2023-01-31T00:33:38;2.00;99.90
12957;DHT22;6543;48.836;10.092;2023-01-31T00:36:07;2.00;99.90
12957;DHT22;6543;48.836;10.092;2023-01-31T00:38:34;2.00;99.90
12957;DHT22;6543;48.836;10.092;2023-01-31T00:41:01;2.00;99.90
12957;DHT22;6543;48.836;10.092;2023-01-31T00:43:30;2.00;99.90
12957;DHT22;6543;48.836;10.092;2023-01-31T00:45:56;2.00;99.90
12957;DHT22;6543;48.836;10.092;2023-01-31T00:48:23;2.10;99.90
12957;DHT22;6543;48.836;10.092;2023-01-31T00:50:50;2.10;99.90
12957;DHT22;6543;48.836;10.092;2023-01-31T00:53:17;2.10;99.90
12957;DHT22;6543;48.836;10.092;2023-01-31T00:55:48;2.10;99.90
12957;DHT22;6543;48.836;10.092;2023-01-31T00:58:15;2.10;99.90
12957;DHT22;6543;48.836;10.092;2023-01-31T01:00:43;2.10;99.90
12957;DHT22;6543;48.836;10.092;2023-01-31T01:03:10;2.10;99.90
12957;DHT22;6543;48.836;10.092;2023-01-31T01:05:37;2.10;99.90
12957;DHT22;6543;48.836;10.092;2023-01-31T01:08:04;2.10;99.90
12957;DHT22;6543;48.836;10.092;2023-01-31T01:10:31;2.20;99.90
12957;DHT22;6543;48.836;10.092;2023-01-31T01:12:57;2.20;99.90
12957;DHT22;6543;48.836;10.092;2023-01-31T01:15:24;2.20;99.90
12957;DHT22;6543;48.836;10.092;2023-01-31T01:17:54;2.20;99.90
12957;DHT22;6543;48.836;10.092;2023-01-31T01:20:20;2.10;99.90
12957;DHT22;6543;48.836;10.092;2023-01-31T01:22:47;2.10;99.90
12957;DHT22;6543;48.836;10.092;2023-01-31T01:25:14;2.10;99.90
12957;DHT22;6543;48.836;10.092;2023-01-31T01:27:41;2.00;99.90
12957;DHT22;6543;48.836;10.092;2023-01-31T01:30:09;2.10;99.90
12957;DHT22;6543;48.836;10.092;2023-01-31T01:32:36;2.10;99.90
12957;DHT22;6543;48.836;10.092;2023-01-31T01:35:05;2.00;99.90
12957;DHT22;6543;48.836;10.092;2023-01-31T01:37:32;2.00;99.90
12957;DHT22;6543;48.836;10.092;2023-01-31T01:39:59;2.10;99.90
12957;DHT22;6543;48.836;10.092;2023-01-31T01:42:26;2.00;99.90
12957;DHT22;6543;48.836;10.092;2023-01-31T01:44:54;2.00;99.90
12957;DHT22;6543;48.836;10.092;2023-01-31T01:47:32;2.00;99.90
12957;DHT22;6543;48.836;10.092;2023-01-31T01:50:05;2.00;99.90
12957;DHT22;6543;48.836;10.092;2023-01-31T01:52:37;2.00;99.90
12957;DHT22;6543;48.836;10.092;2023-01-31T01:55:11;2.00;99.90
12957;DHT22;6543;48.836;10.092;2023-01-31T01:57:44;2.00;99.90
12957;DHT22;6543;48.836;10.092;2023-01-31T02:00:14;2.00;99.90
12957;DHT22;6543;48.836;10.092;2023-01-31T02:02:42;2.00;99.90
12957;DHT22;6543;48.836;10.092;2023-01-31T02:05:12;2.00;99.90
12957;DHT22;6543;48.836;10.092;2023-01-31T02:07:41;1.90;99.90
12957;DHT22;6543;48.836;10.092;2023-01-31T02:10:12;1.90;99.90
12957;DHT22;6543;48.836;10.092;2023-01-31T02:12:41;2.00;99.90
12957;DHT22;6543;48.836;10.092;2023-01-31T02:15:09;2.00;99.90
12957;DHT22;6543;48.836;10.092;2023-01-31T02:17:36;1.90;99.90
12957;DHT22;6543;48.836;10.092;2023-01-31T02:20:18;1.90;99.90
12957;DHT22;6543;48.836;10.092;2023-01-31T02:23:00;1.90;99.90
12957;DHT22;6543;48.836;10.092;2023-01-31T02:26:15;1.90;99.90
12957;DHT22;6543;48.836;10.092;2023-01-31T02:32:13;1.90;99.90
12957;DHT22;6543;48.836;10.092;2023-01-31T02:34:44;1.90;99.90
12957;DHT22;6543;48.836;10.092;2023-01-31T02:37:21;2.00;99.90
12957;DHT22;6543;48.836;10.092;2023-01-31T02:39:59;1.90;99.90
12957;DHT22;6543;48.836;10.092;2023-01-31T02:42:33;1.90;99.90
12957;DHT22;6543;48.836;10.092;2023-01-31T02:45:08;2.00;99.90
12957;DHT22;6543;48.836;10.092;2023-01-31T02:47:53;1.90;99.90
12957;DHT22;6543;48.836;10.092;2023-01-31T02:50:26;1.90;99.90
12957;DHT22;6543;48.836;10.092;2023-01-31T02:52:59;1.90;99.90
12957;DHT22;6543;48.836;10.092;2023-01-31T02:58:07;1.90;99.90
12957;DHT22;6543;48.836;10.092;2023-01-31T03:00:37;1.90;99.90
12957;DHT22;6543;48.836;10.092;2023-01-31T03:03:12;2.00;99.90
12957;DHT22;6543;48.836;10.092;2023-01-31T03:05:44;2.00;99.90
12957;DHT22;6543;48.836;10.092;2023-01-31T03:08:11;2.00;99.90
12957;DHT22;6543;48.836;10.092;2023-01-31T03:10:55;2.00;99.90
12957;DHT22;6543;48.836;10.092;2023-01-31T03:13:34;2.00;99.90
12957;DHT22;6543;48.836;10.092;2023-01-31T03:16:10;2.00;99.90
12957;DHT22;6543;48.836;10.092;2023-01-31T03:19:05;2.00;99.90
12957;DHT22;6543;48.836;10.092;2023-01-31T03:21:42;2.00;99.90
12957;DHT22;6543;48.836;10.092;2023-01-31T03:24:11;2.00;99.90
12957;DHT22;6543;48.836;10.092;2023-01-31T03:26:38;2.00;99.90
12957;DHT22;6543;48.836;10.092;2023-01-31T03:29:06;2.00;99.90
12957;DHT22;6543;48.836;10.092;2023-01-31T03:31:37;2.00;99.90
12957;DHT22;6543;48.836;10.092;2023-01-31T03:34:08;2.00;99.90
12957;DHT22;6543;48.836;10.092;2023-01-31T03:36:40;2.00;99.90
12957;DHT22;6543;48.836;10.092;2023-01-31T03:39:13;2.00;99.90
12957;DHT22;6543;48.836;10.092;2023-01-31T03:41:47;2.10;99.90
12957;DHT22;6543;48.836;10.092;2023-01-31T03:44:20;2.00;99.90
12957;DHT22;6543;48.836;10.092;2023-01-31T03:46:53;2.00;99.90
12957;DHT22;6543;48.836;10.092;2023-01-31T03:49:25;2.10;99.90
12957;DHT22;6543;48.836;10.092;2023-01-31T03:51:57;2.10;99.90
12957;DHT22;6543;48.836;10.092;2023-01-31T03:54:28;2.10;99.90
12957;DHT22;6543;48.836;10.092;2023-01-31T03:56:59;2.10;99.90
12957;DHT22;6543;48.836;10.092;2023-01-31T03:59:31;2.10;99.90
12957;DHT22;6543;48.836;10.092;2023-01-31T04:02:02;2.00;99.90
12957;DHT22;6543;48.836;10.092;2023-01-31T04:04:34;2.10;99.90
12957;DHT22;6543;48.836;10.092;2023-01-31T04:07:03;2.10;99.90
12957;DHT22;6543;48.836;10.092;2023-01-31T04:09:30;2.10;99.90
12957;DHT22;6543;48.836;10.092;2023-01-31T04:11:59;2.10;99.90
12957;DHT22;6543;48.836;10.092;2023-01-31T04:14:27;2.10;99.90
12957;DHT22;6543;48.836;10.092;2023-01-31T04:16:54;2.20;99.90
12957;DHT22;6543;48.836;10.092;2023-01-31T04:19:21;2.10;99.90
12957;DHT22;6543;48.836;10.092;2023-01-31T04:21:49;2.20;99.90
12957;DHT22;6543;48.836;10.092;2023-01-31T04:24:16;2.20;99.90
12957;DHT22;6543;48.836;10.092;2023-01-31T04:26:43;2.20;99.90
12957;DHT22;6543;48.836;10.092;2023-01-31T04:29:10;2.20;99.90
12957;DHT22;6543;48.836;10.092;2023-01-31T04:31:37;2.20;99.90
12957;DHT22;6543;48.836;10.092;2023-01-31T04:34:04;2.20;99.90
12957;DHT22;6543;48.836;10.092;2023-01-31T04:36:31;2.10;99.90
12957;DHT22;6543;48.836;10.092;2023-01-31T04:38:59;2.10;99.90
12957;DHT22;6543;48.836;10.092;2023-01-31T04:41:26;2.10;99.90
12957;DHT22;6543;48.836;10.092;2023-01-31T04:43:53;2.10;99.90
12957;DHT22;6543;48.836;10.092;2023-01-31T04:46:20;2.10;99.90
12957;DHT22;6543;48.836;10.092;2023-01-31T04:48:47;2.10;99.90
12957;DHT22;6543;48.836;10.092;2023-01-31T04:51:14;2.10;99.90
12957;DHT22;6543;48.836;10.092;2023-01-31T04:53:42;2.10;99.90
12957;DHT22;6543;48.836;10.092;2023-01-31T04:56:10;2.10;99.90
12957;DHT22;6543;48.836;10.092;2023-01-31T04:58:37;2.10;99.90
12957;DHT22;6543;48.836;10.092;2023-01-31T05:01:06;2.10;99.90
12957;DHT22;6543;48.836;10.092;2023-01-31T05:03:33;2.10;99.90
12957;DHT22;6543;48.836;10.092;2023-01-31T05:06:00;2.10;99.90
12957;DHT22;6543;48.836;10.092;2023-01-31T05:08:26;2.20;99.90
12957;DHT22;6543;48.836;10.092;2023-01-31T05:10:57;2.10;99.90
12957;DHT22;6543;48.836;10.092;2023-01-31T05:13:26;2.10;99.90
12957;DHT22;6543;48.836;10.092;2023-01-31T05:15:54;2.10;99.90
12957;DHT22;6543;48.836;10.092;2023-01-31T05:18:22;2.10;99.90
12957;DHT22;6543;48.836;10.092;2023-01-31T05:20:49;2.10;99.90
12957;DHT22;6543;48.836;10.092;2023-01-31T05:23:16;2.00;99.90
12957;DHT22;6543;48.836;10.092;2023-01-31T05:25:44;2.00;99.90
12957;DHT22;6543;48.836;10.092;2023-01-31T05:28:12;2.10;99.90
12957;DHT22;6543;48.836;10.092;2023-01-31T05:30:40;2.10;99.90
12957;DHT22;6543;48.836;10.092;2023-01-31T05:33:07;2.00;99.90
12957;DHT22;6543;48.836;10.092;2023-01-31T05:35:33;2.10;99.90
12957;DHT22;6543;48.836;10.092;2023-01-31T05:38:00;2.00;99.90
12957;DHT22;6543;48.836;10.092;2023-01-31T05:40:27;2.10;99.90
12957;DHT22;6543;48.836;10.092;2023-01-31T05:42:55;2.00;99.90
12957;DHT22;6543;48.836;10.092;2023-01-31T05:45:22;2.00;99.90
12957;DHT22;6543;48.836;10.092;2023-01-31T05:47:51;2.00;99.90
12957;DHT22;6543;48.836;10.092;2023-01-31T05:50:18;2.00;99.90
12957;DHT22;6543;48.836;10.092;2023-01-31T05:52:49;2.10;99.90
12957;DHT22;6543;48.836;10.092;2023-01-31T05:55:16;2.10;99.90
12957;DHT22;6543;48.836;10.092;2023-01-31T05:57:43;2.10;99.90
12957;DHT22;6543;48.836;10.092;2023-01-31T06:00:11;2.10;99.90
12957;DHT22;6543;48.836;10.092;2023-01-31T06:02:39;2.10;99.90
12957;DHT22;6543;48.836;10.092;2023-01-31T06:05:08;2.10;99.90
12957;DHT22;6543;48.836;10.092;2023-01-31T06:07:35;2.10;99.90
12957;DHT22;6543;48.836;10.092;2023-01-31T06:10:03;2.10;99.90
12957;DHT22;6543;48.836;10.092;2023-01-31T06:12:30;2.10;99.90
12957;DHT22;6543;48.836;10.092;2023-01-31T06:14:57;2.10;99.90
12957;DHT22;6543;48.836;10.092;2023-01-31T06:17:24;2.10;99.90
12957;DHT22;6543;48.836;10.092;2023-01-31T06:19:51;2.10;99.90
12957;DHT22;6543;48.836;10.092;2023-01-31T06:22:19;2.00;99.90
12957;DHT22;6543;48.836;10.092;2023-01-31T06:24:46;2.00;99.90
12957;DHT22;6543;48.836;10.092;2023-01-31T06:27:12;2.00;99.90
12957;DHT22;6543;48.836;10.092;2023-01-31T06:29:39;1.90;99.90
12957;DHT22;6543;48.836;10.092;2023-01-31T06:32:06;1.90;99.90
12957;DHT22;6543;48.836;10.092;2023-01-31T06:34:33;1.90;99.90
12957;DHT22;6543;48.836;10.092;2023-01-31T06:37:00;1.90;99.90
12957;DHT22;6543;48.836;10.092;2023-01-31T06:39:28;1.80;99.90
12957;DHT22;6543;48.836;10.092;2023-01-31T06:41:55;1.80;99.90
12957;DHT22;6543;48.836;10.092;2023-01-31T06:44:22;1.80;99.90
12957;DHT22;6543;48.836;10.092;2023-01-31T06:46:48;1.70;99.90
12957;DHT22;6543;48.836;10.092;2023-01-31T06:49:15;1.70;99.90
12957;DHT22;6543;48.836;10.092;2023-01-31T06:51:42;1.70;99.90
12957;DHT22;6543;48.836;10.092;2023-01-31T06:54:09;1.70;99.90
12957;DHT22;6543;48.836;10.092;2023-01-31T06:56:37;1.70;99.90
12957;DHT22;6543;48.836;10.092;2023-01-31T06:59:04;1.70;99.90
12957;DHT22;6543;48.836;10.092;2023-01-31T07:01:31;1.60;99.90
12957;DHT22;6543;48.836;10.092;2023-01-31T07:03:58;1.60;99.90
12957;DHT22;6543;48.836;10.092;2023-01-31T07:06:25;1.60;99.90
12957;DHT22;6543;48.836;10.092;2023-01-31T07:08:52;1.60;99.90
12957;DHT22;6543;48.836;10.092;2023-01-31T07:11:19;1.60;99.90
12957;DHT22;6543;48.836;10.092;2023-01-31T07:13:47;1.60;99.90
12957;DHT22;6543;48.836;10.092;2023-01-31T07:16:15;1.60;99.90
12957;DHT22;6543;48.836;10.092;2023-01-31T07:18:42;1.60;99.90
12957;DHT22;6543;48.836;10.092;2023-01-31T07:21:09;1.60;99.90
12957;DHT22;6543;48.836;10.092;2023-01-31T07:23:36;1.70;99.90
12957;DHT22;6543;48.836;10.092;2023-01-31T07:26:03;1.70;99.90
12957;DHT22;6543;48.836;10.092;2023-01-31T07:28:30;1.70;99.90
12957;DHT22;6543;48.836;10.092;2023-01-31T07:31:04;1.80;99.90
12957;DHT22;6543;48.836;10.092;2023-01-31T07:33:31;1.80;99.90
12957;DHT22;6543;48.836;10.092;2023-01-31T07:36:00;1.80;99.90
12957;DHT22;6543;48.836;10.092;2023-01-31T07:38:27;1.80;99.90
12957;DHT22;6543;48.836;10.092;2023-01-31T07:40:57;1.80;99.90
12957;DHT22;6543;48.836;10.092;2023-01-31T07:43:25;1.80;99.90
12957;DHT22;6543;48.836;10.092;2023-01-31T07:45:51;1.80;99.90
12957;DHT22;6543;48.836;10.092;2023-01-31T07:48:20;1.80;99.90
12957;DHT22;6543;48.836;10.092;2023-01-31T07:50:49;1.80;99.90
12957;DHT22;6543;48.836;10.092;2023-01-31T07:53:16;1.90;99.90
12957;DHT22;6543;48.836;10.092;2023-01-31T07:55:42;1.90;99.90
12957;DHT22;6543;48.836;10.092;2023-01-31T07:58:12;1.90;99.90
12957;DHT22;6543;48.836;10.092;2023-01-31T08:00:39;1.90;99.90
12957;DHT22;6543;48.836;10.092;2023-01-31T08:03:27;1.80;99.90
12957;DHT22;6543;48.836;10.092;2023-01-31T08:06:02;1.80;99.90
12957;DHT22;6543;48.836;10.092;2023-01-31T08:08:29;1.90;99.90
12957;DHT22;6543;48.836;10.092;2023-01-31T08:10:56;2.00;99.90
12957;DHT22;6543;48.836;10.092;2023-01-31T08:13:23;1.80;99.90
12957;DHT22;6543;48.836;10.092;2023-01-31T08:15:51;1.90;99.90
12957;DHT22;6543;48.836;10.092;2023-01-31T08:18:19;1.80;99.90
12957;DHT22;6543;48.836;10.092;2023-01-31T08:20:47;1.80;99.90
12957;DHT22;6543;48.836;10.092;2023-01-31T08:23:14;1.80;99.90
12957;DHT22;6543;48.836;10.092;2023-01-31T08:25:41;1.80;99.90
12957;DHT22;6543;48.836;10.092;2023-01-31T08:28:09;1.90;99.90
12957;DHT22;6543;48.836;10.092;2023-01-31T08:30:39;1.90;99.90
12957;DHT22;6543;48.836;10.092;2023-01-31T08:33:06;2.10;99.90
12957;DHT22;6543;48.836;10.092;2023-01-31T08:35:33;2.20;99.90
12957;DHT22;6543;48.836;10.092;2023-01-31T08:38:01;2.20;99.90
12957;DHT22;6543;48.836;10.092;2023-01-31T08:40:28;2.30;99.90
12957;DHT22;6543;48.836;10.092;2023-01-31T08:42:56;2.40;99.90
12957;DHT22;6543;48.836;10.092;2023-01-31T08:45:25;2.40;99.90
12957;DHT22;6543;48.836;10.092;2023-01-31T08:47:53;2.40;99.90
12957;DHT22;6543;48.836;10.092;2023-01-31T08:50:20;2.40;99.90
12957;DHT22;6543;48.836;10.092;2023-01-31T08:52:51;2.50;99.90
12957;DHT22;6543;48.836;10.092;2023-01-31T08:55:20;2.50;99.90
12957;DHT22;6543;48.836;10.092;2023-01-31T08:57:48;2.60;99.90
12957;DHT22;6543;48.836;10.092;2023-01-31T09:00:25;3.50;99.90
12957;DHT22;6543;48.836;10.092;2023-01-31T09:02:53;2.60;99.90
12957;DHT22;6543;48.836;10.092;2023-01-31T09:05:21;2.50;99.90
12957;DHT22;6543;48.836;10.092;2023-01-31T09:07:48;2.60;99.90
12957;DHT22;6543;48.836;10.092;2023-01-31T09:10:15;2.80;99.90
12957;DHT22;6543;48.836;10.092;2023-01-31T09:12:43;3.00;99.90
12957;DHT22;6543;48.836;10.092;2023-01-31T09:15:10;3.10;99.90
12957;DHT22;6543;48.836;10.092;2023-01-31T09:17:38;3.00;99.90
12957;DHT22;6543;48.836;10.092;2023-01-31T09:20:06;2.90;99.90
12957;DHT22;6543;48.836;10.092;2023-01-31T09:22:35;3.00;99.90
12957;DHT22;6543;48.836;10.092;2023-01-31T09:25:02;3.10;99.90
12957;DHT22;6543;48.836;10.092;2023-01-31T09:27:29;3.10;99.90
12957;DHT22;6543;48.836;10.092;2023-01-31T09:29:57;3.20;99.90
12957;DHT22;6543;48.836;10.092;2023-01-31T09:32:24;3.30;99.90
12957;DHT22;6543;48.836;10.092;2023-01-31T09:34:51;3.30;99.90
12957;DHT22;6543;48.836;10.092;2023-01-31T09:37:18;3.30;99.90
12957;DHT22;6543;48.836;10.092;2023-01-31T09:39:45;3.20;99.90
12957;DHT22;6543;48.836;10.092;2023-01-31T09:42:18;3.30;99.90
12957;DHT22;6543;48.836;10.092;2023-01-31T09:44:56;3.30;99.90
12957;DHT22;6543;48.836;10.092;2023-01-31T09:47:27;3.40;99.90
12957;DHT22;6543;48.836;10.092;2023-01-31T09:49:58;3.50;99.90
12957;DHT22;6543;48.836;10.092;2023-01-31T09:52:26;3.80;99.90
12957;DHT22;6543;48.836;10.092;2023-01-31T09:54:55;3.70;99.90
12957;DHT22;6543;48.836;10.092;2023-01-31T09:57:31;3.60;99.90
12957;DHT22;6543;48.836;10.092;2023-01-31T10:00:10;3.60;99.90
12957;DHT22;6543;48.836;10.092;2023-01-31T10:03:05;3.90;99.90
12957;DHT22;6543;48.836;10.092;2023-01-31T10:05:39;3.80;99.90
12957;DHT22;6543;48.836;10.092;2023-01-31T10:08:16;4.00;99.90
12957;DHT22;6543;48.836;10.092;2023-01-31T10:10:46;4.10;99.90
12957;DHT22;6543;48.836;10.092;2023-01-31T10:13:20;4.00;99.90
12957;DHT22;6543;48.836;10.092;2023-01-31T10:15:51;4.10;99.90
12957;DHT22;6543;48.836;10.092;2023-01-31T10:18:24;3.90;99.90
12957;DHT22;6543;48.836;10.092;2023-01-31T10:20:53;4.00;99.90
12957;DHT22;6543;48.836;10.092;2023-01-31T10:23:26;4.10;99.90
12957;DHT22;6543;48.836;10.092;2023-01-31T10:25:58;4.40;99.90
12957;DHT22;6543;48.836;10.092;2023-01-31T10:28:31;4.30;99.90
12957;DHT22;6543;48.836;10.092;2023-01-31T10:31:04;4.10;99.90
12957;DHT22;6543;48.836;10.092;2023-01-31T10:33:40;4.20;99.90
12957;DHT22;6543;48.836;10.092;2023-01-31T10:36:13;4.20;99.90
12957;DHT22;6543;48.836;10.092;2023-01-31T10:38:52;4.00;99.90
12957;DHT22;6543;48.836;10.092;2023-01-31T10:41:28;4.20;99.90
12957;DHT22;6543;48.836;10.092;2023-01-31T10:44:00;4.10;99.90
12957;DHT22;6543;48.836;10.092;2023-01-31T10:46:29;4.40;99.90
12957;DHT22;6543;48.836;10.092;2023-01-31T10:48:57;4.50;99.90
12957;DHT22;6543;48.836;10.092;2023-01-31T10:51:39;4.60;99.90
12957;DHT22;6543;48.836;10.092;2023-01-31T10:54:18;4.90;99.90
12957;DHT22;6543;48.836;10.092;2023-01-31T10:56:48;5.00;99.90
12957;DHT22;6543;48.836;10.092;2023-01-31T10:59:21;5.00;99.90
12957;DHT22;6543;48.836;10.092;2023-01-31T11:01:49;5.20;99.90
12957;DHT22;6543;48.836;10.092;2023-01-31T11:04:24;5.30;99.90
12957;DHT22;6543;48.836;10.092;2023-01-31T11:06:53;5.00;99.90
12957;DHT22;6543;48.836;10.092;2023-01-31T11:09:21;4.80;99.90
12957;DHT22;6543;48.836;10.092;2023-01-31T11:11:54;4.60;99.90
12957;DHT22;6543;48.836;10.092;2023-01-31T11:14:21;4.80;99.90
12957;DHT22;6543;48.836;10.092;2023-01-31T11:16:49;4.90;99.90
12957;DHT22;6543;48.836;10.092;2023-01-31T11:19:28;4.80;99.90
12957;DHT22;6543;48.836;10.092;2023-01-31T11:21:56;4.70;99.90
12957;DHT22;6543;48.836;10.092;2023-01-31T11:24:24;4.50;99.90
12957;DHT22;6543;48.836;10.092;2023-01-31T11:26:55;4.50;99.90
12957;DHT22;6543;48.836;10.092;2023-01-31T11:29:26;4.40;99.90
12957;DHT22;6543;48.836;10.092;2023-01-31T11:31:54;4.50;99.90
12957;DHT22;6543;48.836;10.092;2023-01-31T11:34:25;4.60;99.90
12957;DHT22;6543;48.836;10.092;2023-01-31T11:37:02;4.50;99.90
12957;DHT22;6543;48.836;10.092;2023-01-31T11:39:31;4.60;99.90
12957;DHT22;6543;48.836;10.092;2023-01-31T11:42:05;4.80;99.90
12957;DHT22;6543;48.836;10.092;2023-01-31T11:44:32;4.70;99.90
12957;DHT22;6543;48.836;10.092;2023-01-31T11:47:02;4.80;99.90
12957;DHT22;6543;48.836;10.092;2023-01-31T11:49:33;4.90;99.90
12957;DHT22;6543;48.836;10.092;2023-01-31T11:52:11;5.00;99.90
12957;DHT22;6543;48.836;10.092;2023-01-31T11:54:40;5.10;99.90
12957;DHT22;6543;48.836;10.092;2023-01-31T11:57:22;4.80;99.90
12957;DHT22;6543;48.836;10.092;2023-01-31T11:59:52;5.10;99.90
12957;DHT22;6543;48.836;10.092;2023-01-31T12:02:25;5.00;99.90
12957;DHT22;6543;48.836;10.092;2023-01-31T12:04:54;5.10;99.90
12957;DHT22;6543;48.836;10.092;2023-01-31T12:07:24;5.30;99.90
12957;DHT22;6543;48.836;10.092;2023-01-31T12:09:51;5.10;99.90
12957;DHT22;6543;48.836;10.092;2023-01-31T12:12:27;4.80;99.90
12957;DHT22;6543;48.836;10.092;2023-01-31T12:14:59;4.80;99.90
12957;DHT22;6543;48.836;10.092;2023-01-31T12:17:28;4.80;99.90
12957;DHT22;6543;48.836;10.092;2023-01-31T12:20:13;4.90;99.90
12957;DHT22;6543;48.836;10.092;2023-01-31T12:22:48;4.70;99.90
12957;DHT22;6543;48.836;10.092;2023-01-31T12:25:21;4.70;99.90
12957;DHT22;6543;48.836;10.092;2023-01-31T12:28:03;4.80;99.90
12957;DHT22;6543;48.836;10.092;2023-01-31T12:30:42;4.90;99.90
12957;DHT22;6543;48.836;10.092;2023-01-31T12:33:23;4.90;99.90
12957;DHT22;6543;48.836;10.092;2023-01-31T12:36:06;5.00;99.90
12957;DHT22;6543;48.836;10.092;2023-01-31T12:38:52;5.00;99.90
12957;DHT22;6543;48.836;10.092;2023-01-31T12:41:31;6.10;99.90
12957;DHT22;6543;48.836;10.092;2023-01-31T12:47:02;5.50;99.90
12957;DHT22;6543;48.836;10.092;2023-01-31T12:49:55;5.40;99.90
12957;DHT22;6543;48.836;10.092;2023-01-31T12:52:27;5.20;99.90
12957;DHT22;6543;48.836;10.092;2023-01-31T12:55:09;5.30;99.90
12957;DHT22;6543;48.836;10.092;2023-01-31T12:57:45;5.00;99.90
12957;DHT22;6543;48.836;10.092;2023-01-31T13:00:26;5.30;99.90
12957;DHT22;6543;48.836;10.092;2023-01-31T13:03:36;5.30;99.90
12957;DHT22;6543;48.836;10.092;2023-01-31T13:06:07;5.40;99.90
12957;DHT22;6543;48.836;10.092;2023-01-31T13:08:43;5.50;99.90
12957;DHT22;6543;48.836;10.092;2023-01-31T13:11:16;5.30;99.90
12957;DHT22;6543;48.836;10.092;2023-01-31T13:13:47;5.00;99.90
12957;DHT22;6543;48.836;10.092;2023-01-31T13:16:17;5.00;99.90
12957;DHT22;6543;48.836;10.092;2023-01-31T13:18:47;4.90;99.90
12957;DHT22;6543;48.836;10.092;2023-01-31T13:21:17;5.00;99.90
12957;DHT22;6543;48.836;10.092;2023-01-31T13:23:50;5.10;99.90
12957;DHT22;6543;48.836;10.092;2023-01-31T13:26:22;5.10;99.90
12957;DHT22;6543;48.836;10.092;2023-01-31T13:28:56;5.10;99.90
12957;DHT22;6543;48.836;10.092;2023-01-31T13:31:26;5.00;99.90
12957;DHT22;6543;48.836;10.092;2023-01-31T13:33:57;4.80;99.90
12957;DHT22;6543;48.836;10.092;2023-01-31T13:36:29;4.80;99.90
12957;DHT22;6543;48.836;10.092;2023-01-31T13:39:04;4.80;99.90
12957;DHT22;6543;48.836;10.092;2023-01-31T13:41:33;4.70;99.90
12957;DHT22;6543;48.836;10.092;2023-01-31T13:44:01;4.70;99.90
12957;DHT22;6543;48.836;10.092;2023-01-31T13:46:32;4.80;99.90
12957;DHT22;6543;48.836;10.092;2023-01-31T13:49:04;4.60;99.90
12957;DHT22;6543;48.836;10.092;2023-01-31T13:51:34;4.70;99.90
12957;DHT22;6543;48.836;10.092;2023-01-31T13:54:10;4.80;99.90
12957;DHT22;6543;48.836;10.092;2023-01-31T13:56:39;4.80;99.90
12957;DHT22;6543;48.836;10.092;2023-01-31T13:59:08;4.80;99.90
12957;DHT22;6543;48.836;10.092;2023-01-31T14:01:43;4.70;99.90
12957;DHT22;6543;48.836;10.092;2023-01-31T14:04:32;4.80;99.90
12957;DHT22;6543;48.836;10.092;2023-01-31T14:07:23;4.80;99.90
12957;DHT22;6543;48.836;10.092;2023-01-31T14:13:38;4.80;99.90
12957;DHT22;6543;48.836;10.092;2023-01-31T14:16:37;4.70;99.90
12957;DHT22;6543;48.836;10.092;2023-01-31T14:19:07;4.70;99.90
12957;DHT22;6543;48.836;10.092;2023-01-31T14:21:52;4.80;99.90
12957;DHT22;6543;48.836;10.092;2023-01-31T14:27:42;4.60;99.90
12957;DHT22;6543;48.836;10.092;2023-01-31T14:30:24;4.60;99.90
12957;DHT22;6543;48.836;10.092;2023-01-31T14:33:18;4.40;99.90
12957;DHT22;6543;48.836;10.092;2023-01-31T14:42:28;4.30;99.90
12957;DHT22;6543;48.836;10.092;2023-01-31T14:45:24;4.40;99.90
12957;DHT22;6543;48.836;10.092;2023-01-31T14:48:09;4.30;99.90
12957;DHT22;6543;48.836;10.092;2023-01-31T14:50:47;4.30;99.90
12957;DHT22;6543;48.836;10.092;2023-01-31T14:57:10;4.50;99.90
12957;DHT22;6543;48.836;10.092;2023-01-31T14:59:43;4.70;99.90
12957;DHT22;6543;48.836;10.092;2023-01-31T15:02:23;4.40;99.90
12957;DHT22;6543;48.836;10.092;2023-01-31T15:04:55;4.20;99.90
12957;DHT22;6543;48.836;10.092;2023-01-31T15:07:23;4.20;99.90
12957;DHT22;6543;48.836;10.092;2023-01-31T15:09:50;4.30;99.90
12957;DHT22;6543;48.836;10.092;2023-01-31T15:12:51;4.30;99.90
12957;DHT22;6543;48.836;10.092;2023-01-31T15:15:24;4.40;99.90
12957;DHT22;6543;48.836;10.092;2023-01-31T15:17:53;4.50;99.90
12957;DHT22;6543;48.836;10.092;2023-01-31T15:20:25;4.20;99.90
12957;DHT22;6543;48.836;10.092;2023-01-31T15:22:56;4.10;99.90
12957;DHT22;6543;48.836;10.092;2023-01-31T15:25:29;4.20;99.90
12957;DHT22;6543;48.836;10.092;2023-01-31T15:27:58;4.10;99.90
12957;DHT22;6543;48.836;10.092;2023-01-31T15:30:28;4.10;99.90
12957;DHT22;6543;48.836;10.092;2023-01-31T15:33:01;4.10;99.90
12957;DHT22;6543;48.836;10.092;2023-01-31T15:35:34;4.00;99.90
12957;DHT22;6543;48.836;10.092;2023-01-31T15:38:04;3.90;99.90
12957;DHT22;6543;48.836;10.092;2023-01-31T15:40:35;4.00;99.90
12957;DHT22;6543;48.836;10.092;2023-01-31T15:43:15;3.90;99.90
12957;DHT22;6543;48.836;10.092;2023-01-31T15:45:43;3.90;99.90
12957;DHT22;6543;48.836;10.092;2023-01-31T15:48:15;3.90;99.90
12957;DHT22;6543;48.836;10.092;2023-01-31T15:50:54;3.80;99.90
12957;DHT22;6543;48.836;10.092;2023-01-31T15:53:24;3.90;99.90
12957;DHT22;6543;48.836;10.092;2023-01-31T15:55:53;3.80;99.90
12957;DHT22;6543;48.836;10.092;2023-01-31T15:58:23;3.80;99.90
12957;DHT22;6543;48.836;10.092;2023-01-31T16:00:51;3.80;99.90
12957;DHT22;6543;48.836;10.092;2023-01-31T16:03:22;3.80;99.90
12957;DHT22;6543;48.836;10.092;2023-01-31T16:05:52;3.70;99.90
12957;DHT22;6543;48.836;10.092;2023-01-31T16:08:22;3.70;99.90
12957;DHT22;6543;48.836;10.092;2023-01-31T16:10:52;3.70;99.90
12957;DHT22;6543;48.836;10.092;2023-01-31T16:13:19;3.60;99.90
12957;DHT22;6543;48.836;10.092;2023-01-31T16:15:47;3.60;99.90
12957;DHT22;6543;48.836;10.092;2023-01-31T16:18:16;3.60;99.90
12957;DHT22;6543;48.836;10.092;2023-01-31T16:20:46;3.50;99.90
12957;DHT22;6543;48.836;10.092;2023-01-31T16:23:26;3.50;99.90
12957;DHT22;6543;48.836;10.092;2023-01-31T16:25:57;3.50;99.90
12957;DHT22;6543;48.836;10.092;2023-01-31T16:28:27;3.40;99.90
12957;DHT22;6543;48.836;10.092;2023-01-31T16:31:03;3.40;99.90
12957;DHT22;6543;48.836;10.092;2023-01-31T16:33:30;3.40;99.90
12957;DHT22;6543;48.836;10.092;2023-01-31T16:36:04;3.50;99.90